Portada
METAR-TAF:

METAR-TAF

Aeroports :

Biak, Indonèsia

latitud: 01-11S, longitud: 136-07E, altitud: 11 m

METAR: manca

Hora: 22:53 (15:53 UTC)

Pronòstic

L'informe es va fer fa 4 hores i 53 minuts, a les 11:00 UTC
Pronòstic vàlid del 18 a les 12 UTC al 19 a les 18 UTC
Vent kt del Nord
Visibilitat 10 km o més
Núvols disperses a una alçada de 1800 ft
Probabilitat 40% :
Temporalment
l' 18 a les 16 UTC al 18 a les 20 UTC
Visibilitat: 5000 m
Escasses núvols a una alçada de 1700 ft, Cumulonimbus.
pluja
Evolucionant progressivament
l' 18 a les 22 UTC al 19 a les 00 UTC
Vent 8 kt del Est

TAF: WABB 181100Z 1812/1918 00000KT 9999 SCT018 PROB40 TEMPO 1816/1820 5000 RA FEW017CB BECMG 1822/1900 10008KT

Observacions i pronòstics meteorològics de més de 4000 aeroports (METAR i TAF).

Les estacions disponibles són els punts grocs i vermells al mapa.

Posi el ratolí al punt desitjat per veure el nom de l'estació.

Feu clic per veure les observacions i els pronòstics meteorològics.

Per canviar el mapa: feu clic els botons verds amb una creu de color negre per apropar; al botó verd amb un guió per allunyar la imatge; o en les fletxes verdes per a mapes adjacents.


METAR-TAF: